Time;durP1;ratioP1;P1;durP2;ratioP2;P2;SDS_P1;SDS_P2;PMS_P1;PMS_P2;Temp;Humidity;BMP_temperature;BMP_pressure;BME280_temperature;BME280_humidity;BME280_pressure;Samples;Min_cycle;Max_cycle;Signal;HPM_P1;HPM_P2
2021/07/25 00:01:21;;;;;;;8.43;4.70;;;20.10;89.40;;;;;;5053351;28;20669;-80
2021/07/25 00:03:47;;;;;;;11.73;4.93;;;20.20;90.00;;;;;;5053168;28;20262;-79
2021/07/25 00:06:16;;;;;;;8.80;5.27;;;20.30;87.90;;;;;;5052630;28;20209;-79
2021/07/25 00:08:43;;;;;;;7.33;4.80;;;20.40;85.30;;;;;;5053087;28;20611;-78
2021/07/25 00:11:09;;;;;;;6.77;5.17;;;20.50;82.50;;;;;;5053327;28;20173;-79
2021/07/25 00:13:39;;;;;;;8.53;5.50;;;20.50;82.40;;;;;;5053610;28;20183;-82
2021/07/25 00:16:06;;;;;;;8.30;5.57;;;20.50;83.60;;;;;;5052114;28;20186;-81
2021/07/25 00:18:31;;;;;;;8.23;5.47;;;20.50;83.10;;;;;;5053240;28;20653;-81
2021/07/25 00:20:57;;;;;;;8.07;5.67;;;20.40;84.30;;;;;;5053096;28;20174;-77
2021/07/25 00:23:25;;;;;;;10.93;5.67;;;20.30;85.40;;;;;;5052720;28;20193;-80
2021/07/25 00:25:52;;;;;;;8.90;5.77;;;20.20;87.80;;;;;;5052776;28;20173;-79
2021/07/25 00:28:19;;;;;;;9.40;5.70;;;20.30;88.70;;;;;;5053095;28;20293;-77
2021/07/25 00:30:45;;;;;;;7.07;5.87;;;20.30;88.00;;;;;;5054525;28;20175;-78
2021/07/25 00:33:12;;;;;;;8.43;5.87;;;20.40;86.80;;;;;;5056679;28;20194;-78
2021/07/25 00:35:38;;;;;;;8.90;6.03;;;20.40;85.60;;;;;;5057200;28;20223;-78
2021/07/25 00:38:04;;;;;;;7.60;5.60;;;20.30;85.30;;;;;;5056780;28;20177;-78
2021/07/25 00:40:40;;;;;;;7.30;5.50;;;20.10;87.80;;;;;;5057034;28;20724;-79
2021/07/25 00:43:05;;;;;;;7.90;5.93;;;20.10;87.80;;;;;;5055898;28;20635;-78
2021/07/25 00:45:31;;;;;;;9.03;4.93;;;20.10;88.40;;;;;;5055631;28;20184;-78
2021/07/25 00:47:58;;;;;;;5.60;4.53;;;20.20;87.10;;;;;;5056559;28;20248;-78
2021/07/25 00:50:24;;;;;;;9.20;5.07;;;20.20;85.90;;;;;;5056609;28;20172;-79
2021/07/25 00:52:50;;;;;;;7.63;5.23;;;20.20;84.90;;;;;;5056455;28;20203;-79
2021/07/25 00:55:16;;;;;;;8.63;6.07;;;20.10;88.30;;;;;;5056325;28;20631;-79
2021/07/25 00:57:42;;;;;;;7.20;5.50;;;20.00;90.50;;;;;;5056404;28;20171;-79
2021/07/25 01:00:10;;;;;;;7.80;5.17;;;19.90;91.30;;;;;;5055809;28;20316;-79
2021/07/25 01:03:08;;;;;;;9.33;6.07;;;19.90;91.90;;;;;;5056672;28;20179;-79
2021/07/25 01:05:37;;;;;;;8.13;5.83;;;19.90;92.10;;;;;;5054972;28;20226;-79
2021/07/25 01:08:19;;;;;;;8.63;5.77;;;19.70;93.10;;;;;;5055225;28;20180;-79
2021/07/25 01:10:46;;;;;;;10.30;6.37;;;19.60;93.80;;;;;;5058025;28;20195;-79
2021/07/25 01:13:16;;;;;;;8.67;6.10;;;19.60;94.60;;;;;;5056473;28;20164;-79
2021/07/25 01:15:44;;;;;;;7.00;5.93;;;19.60;94.40;;;;;;5055165;28;20173;-79
2021/07/25 01:18:09;;;;;;;8.73;6.50;;;19.70;94.20;;;;;;5056135;28;20254;-79
2021/07/25 01:20:35;;;;;;;9.57;6.13;;;19.70;93.90;;;;;;5054399;28;20678;-79
2021/07/25 01:23:01;;;;;;;7.70;6.30;;;19.70;94.30;;;;;;5056073;28;20608;-79
2021/07/25 01:25:29;;;;;;;10.73;6.40;;;19.80;94.10;;;;;;5056136;28;20253;-79
2021/07/25 01:27:58;;;;;;;8.87;6.33;;;20.00;93.70;;;;;;5055242;28;20171;-79
2021/07/25 01:30:33;;;;;;;7.73;6.13;;;19.90;93.40;;;;;;5057155;28;20167;-81
2021/07/25 01:33:03;;;;;;;8.10;6.13;;;20.00;93.10;;;;;;5057131;28;20537;-79
2021/07/25 01:35:30;;;;;;;7.30;6.37;;;20.10;92.60;;;;;;5056349;28;20197;-79
2021/07/25 01:37:56;;;;;;;9.03;5.97;;;20.30;92.00;;;;;;5056106;28;20541;-79
2021/07/25 01:40:26;;;;;;;10.57;6.67;;;20.30;91.80;;;;;;5055919;28;20167;-78
2021/07/25 01:42:53;;;;;;;7.40;6.17;;;20.30;91.40;;;;;;5055736;28;20235;-79
2021/07/25 01:45:18;;;;;;;8.03;6.27;;;20.40;91.00;;;;;;5053947;28;20201;-79
2021/07/25 01:47:44;;;;;;;8.57;6.33;;;20.30;90.80;;;;;;5054656;28;20648;-79
2021/07/25 01:50:11;;;;;;;7.97;5.83;;;20.20;91.20;;;;;;5055293;28;20697;-79
2021/07/25 01:52:37;;;;;;;10.33;6.70;;;20.10;92.00;;;;;;5055687;28;20182;-78
2021/07/25 01:55:03;;;;;;;9.50;6.03;;;20.20;92.00;;;;;;5055414;28;20208;-79
2021/07/25 01:57:29;;;;;;;8.00;6.73;;;20.40;90.70;;;;;;5054155;28;20180;-79
2021/07/25 01:59:55;;;;;;;7.90;5.83;;;20.50;90.20;;;;;;5055011;28;20179;-79
2021/07/25 02:02:21;;;;;;;7.07;6.07;;;20.50;89.20;;;;;;5053866;28;20175;-79
2021/07/25 02:04:46;;;;;;;8.83;6.50;;;20.60;88.30;;;;;;5054195;28;20737;-80
2021/07/25 02:07:12;;;;;;;7.53;6.03;;;20.60;86.80;;;;;;5055595;28;20176;-79
2021/07/25 02:09:39;;;;;;;11.93;6.50;;;20.60;87.60;;;;;;5058279;28;20214;-81
2021/07/25 02:12:06;;;;;;;7.63;6.20;;;20.60;86.90;;;;;;5071463;28;20175;-78
2021/07/25 02:14:33;;;;;;;9.40;6.80;;;20.60;85.70;;;;;;5074163;28;20214;-80
2021/07/25 02:16:59;;;;;;;9.07;6.50;;;20.60;85.70;;;;;;5069673;28;20172;-80
2021/07/25 02:19:25;;;;;;;8.60;6.77;;;20.60;85.30;;;;;;5075761;28;20159;-80
2021/07/25 02:21:52;;;;;;;9.40;6.97;;;20.60;83.80;;;;;;5072185;28;20179;-78
2021/07/25 02:24:19;;;;;;;8.97;6.30;;;20.60;85.40;;;;;;5058946;28;20189;-78
2021/07/25 02:26:48;;;;;;;9.63;6.50;;;20.40;86.00;;;;;;5058402;28;20175;-79
2021/07/25 02:29:15;;;;;;;9.87;6.50;;;20.40;85.70;;;;;;5058143;28;20245;-79
2021/07/25 02:31:40;;;;;;;7.37;6.23;;;20.40;87.50;;;;;;5058740;28;20270;-77
2021/07/25 02:34:06;;;;;;;9.53;6.00;;;20.50;86.10;;;;;;5056608;28;20187;-79
2021/07/25 02:36:32;;;;;;;7.73;5.90;;;20.50;85.20;;;;;;5055957;28;20219;-79
2021/07/25 02:38:58;;;;;;;12.23;6.40;;;20.40;86.00;;;;;;5054823;28;20187;-80
2021/07/25 02:41:23;;;;;;;12.63;5.77;;;20.30;87.30;;;;;;5054431;28;20170;-78
2021/07/25 02:43:49;;;;;;;8.73;5.40;;;20.10;87.80;;;;;;5054554;28;20699;-79
2021/07/25 02:46:15;;;;;;;7.40;4.83;;;20.00;90.10;;;;;;5054535;28;20175;-79
2021/07/25 02:48:40;;;;;;;8.60;5.37;;;19.90;91.30;;;;;;5054389;28;20261;-79
2021/07/25 02:51:06;;;;;;;9.00;5.63;;;19.70;92.10;;;;;;5055573;28;20185;-80
2021/07/25 02:53:32;;;;;;;7.40;4.73;;;19.50;93.10;;;;;;5060454;28;20174;-78
2021/07/25 02:55:58;;;;;;;8.87;5.13;;;19.50;93.90;;;;;;5061767;28;20243;-80
2021/07/25 02:58:23;;;;;;;8.77;5.50;;;19.40;93.90;;;;;;5060390;28;20178;-79
2021/07/25 03:00:49;;;;;;;8.03;5.00;;;19.40;94.10;;;;;;5056744;28;20634;-78
2021/07/25 03:03:15;;;;;;;9.53;4.33;;;19.40;94.50;;;;;;5053384;28;20206;-78
2021/07/25 03:05:41;;;;;;;8.13;5.63;;;19.30;94.40;;;;;;5053275;28;20174;-78
2021/07/25 03:08:07;;;;;;;9.80;4.83;;;19.30;94.90;;;;;;5055127;28;20630;-78
2021/07/25 03:10:32;;;;;;;8.30;5.13;;;19.30;94.80;;;;;;5055555;28;20166;-80
2021/07/25 03:12:58;;;;;;;8.10;5.47;;;19.30;95.00;;;;;;5055985;28;20279;-79
2021/07/25 03:15:24;;;;;;;9.93;5.27;;;19.40;95.00;;;;;;5055708;28;20190;-79
2021/07/25 03:17:52;;;;;;;7.27;5.23;;;19.20;95.20;;;;;;5055064;28;20525;-78
2021/07/25 03:20:18;;;;;;;10.40;4.97;;;19.20;95.20;;;;;;5054393;28;20249;-77
2021/07/25 03:22:44;;;;;;;9.00;4.97;;;19.30;95.20;;;;;;5055036;28;20166;-78
2021/07/25 03:25:10;;;;;;;9.27;5.43;;;19.30;94.90;;;;;;5054086;28;20171;-76
2021/07/25 03:27:36;;;;;;;13.53;5.30;;;19.20;94.80;;;;;;5054489;28;20173;-80
2021/07/25 03:30:03;;;;;;;8.17;5.43;;;19.30;94.20;;;;;;5055469;28;20212;-78
2021/07/25 03:32:29;;;;;;;9.03;5.80;;;19.20;94.60;;;;;;5054536;28;20177;-77
2021/07/25 03:34:54;;;;;;;7.67;5.30;;;19.10;95.10;;;;;;5057865;28;20238;-79
2021/07/25 03:37:20;;;;;;;10.83;5.40;;;19.00;95.70;;;;;;5057475;28;20260;-76
2021/07/25 03:39:50;;;;;;;18.80;12.40;;;19.10;96.00;;;;;;5058410;28;20656;-77
2021/07/25 03:42:15;;;;;;;13.73;7.10;;;19.10;96.10;;;;;;5056187;28;20501;-79
2021/07/25 03:44:41;;;;;;;8.00;5.67;;;19.00;96.10;;;;;;5060046;28;20240;-77
2021/07/25 03:47:09;;;;;;;8.40;5.67;;;19.00;96.30;;;;;;5057143;28;20249;-78
2021/07/25 03:49:34;;;;;;;11.70;5.47;;;18.90;96.80;;;;;;5055131;28;20197;-80
2021/07/25 03:52:02;;;;;;;8.80;5.63;;;19.00;96.70;;;;;;5054250;28;20638;-78
2021/07/25 03:54:27;;;;;;;8.70;5.40;;;19.00;96.30;;;;;;5053537;28;20174;-78
2021/07/25 03:56:53;;;;;;;8.63;5.73;;;19.00;96.40;;;;;;5060104;28;20167;-79
2021/07/25 03:59:20;;;;;;;7.80;5.67;;;19.00;96.40;;;;;;5070389;28;20213;-77
2021/07/25 04:01:46;;;;;;;12.30;6.10;;;18.90;96.50;;;;;;5066196;28;20625;-78
2021/07/25 04:04:12;;;;;;;9.40;5.27;;;19.00;96.60;;;;;;5053647;28;20315;-79
2021/07/25 04:06:38;;;;;;;8.27;5.43;;;18.90;96.40;;;;;;5054262;28;20212;-78
2021/07/25 04:09:03;;;;;;;9.03;5.50;;;18.90;96.50;;;;;;5053533;28;20212;-79
2021/07/25 04:11:29;;;;;;;10.80;6.03;;;18.90;96.70;;;;;;5053105;28;20178;-79
2021/07/25 04:13:55;;;;;;;8.53;5.50;;;18.90;97.00;;;;;;5052808;28;20188;-80
2021/07/25 04:16:20;;;;;;;8.73;5.70;;;18.90;96.70;;;;;;5052639;28;20178;-80
2021/07/25 04:18:46;;;;;;;11.23;5.67;;;18.90;96.40;;;;;;5052977;28;20174;-79
2021/07/25 04:21:12;;;;;;;7.77;5.07;;;19.00;96.60;;;;;;5053031;28;20173;-79
2021/07/25 04:23:39;;;;;;;9.17;5.87;;;19.00;96.70;;;;;;5052686;28;20215;-79
2021/07/25 04:26:05;;;;;;;13.33;5.90;;;18.90;96.60;;;;;;5053362;28;20653;-79
2021/07/25 04:28:30;;;;;;;10.73;5.50;;;18.80;96.80;;;;;;5053703;28;20190;-79
2021/07/25 04:30:56;;;;;;;10.37;5.47;;;18.90;97.10;;;;;;5053041;28;20599;-79
2021/07/25 04:33:22;;;;;;;10.63;5.67;;;18.90;96.80;;;;;;5053156;28;20166;-78
2021/07/25 04:35:48;;;;;;;6.97;5.00;;;18.90;96.70;;;;;;5052970;28;20187;-78
2021/07/25 04:38:14;;;;;;;12.80;5.67;;;19.00;96.90;;;;;;5053285;28;20242;-78
2021/07/25 04:40:43;;;;;;;11.40;5.37;;;19.00;96.50;;;;;;5052542;28;20664;-79
2021/07/25 04:43:13;;;;;;;11.47;5.30;;;19.10;96.10;;;;;;5052653;28;20167;-79
2021/07/25 04:45:42;;;;;;;7.80;5.23;;;19.20;95.50;;;;;;5052311;28;20587;-79
2021/07/25 04:48:23;;;;;;;8.60;4.80;;;19.20;95.60;;;;;;5051270;28;20170;-79
2021/07/25 04:50:52;;;;;;;7.47;5.20;;;19.10;96.10;;;;;;5051341;28;20170;-78
2021/07/25 04:53:26;;;;;;;9.30;5.50;;;19.20;96.00;;;;;;5052262;28;20161;-79
2021/07/25 04:56:02;;;;;;;8.87;5.00;;;19.20;95.00;;;;;;5052958;28;20173;-78
2021/07/25 04:58:37;;;;;;;7.80;4.87;;;19.20;95.20;;;;;;5052698;28;20257;-79
2021/07/25 05:01:04;;;;;;;10.70;5.27;;;19.30;94.70;;;;;;5052993;28;20621;-78
2021/07/25 05:03:32;;;;;;;8.40;5.50;;;19.20;95.00;;;;;;5051113;28;20176;-79
2021/07/25 05:05:58;;;;;;;8.80;5.50;;;19.20;95.50;;;;;;5052771;28;20531;-79
2021/07/25 05:08:24;;;;;;;10.30;5.13;;;19.30;94.90;;;;;;5052935;28;20202;-78
2021/07/25 05:10:56;;;;;;;9.17;4.70;;;19.40;94.10;;;;;;5052339;28;20171;-78
2021/07/25 05:13:25;;;;;;;8.60;5.40;;;19.50;93.90;;;;;;5052007;28;20630;-78
2021/07/25 05:15:53;;;;;;;10.60;5.50;;;19.60;93.30;;;;;;5052176;28;20185;-80
2021/07/25 05:18:34;;;;;;;7.67;5.23;;;19.70;92.80;;;;;;5056178;28;20174;-78
2021/07/25 05:21:09;;;;;;;7.97;5.20;;;19.70;92.70;;;;;;5055778;28;20202;-79
2021/07/25 05:23:45;;;;;;;9.47;5.17;;;19.70;92.50;;;;;;5055737;28;20219;-79
2021/07/25 05:26:12;;;;;;;11.40;4.50;;;19.80;91.90;;;;;;5056610;28;20174;-79
2021/07/25 05:28:39;;;;;;;9.93;5.07;;;19.90;91.30;;;;;;5056268;28;20256;-79
2021/07/25 05:31:06;;;;;;;8.67;4.73;;;20.00;90.60;;;;;;5056425;28;20208;-79
2021/07/25 05:33:32;;;;;;;11.97;4.60;;;20.00;89.90;;;;;;5056179;28;20164;-79
2021/07/25 05:35:58;;;;;;;8.67;5.00;;;20.00;89.40;;;;;;5056517;28;20203;-79
2021/07/25 05:38:24;;;;;;;8.63;4.30;;;20.20;87.50;;;;;;5055985;28;20182;-79
2021/07/25 05:40:49;;;;;;;6.87;4.67;;;20.50;84.70;;;;;;5055780;28;20191;-80
2021/07/25 05:43:15;;;;;;;7.97;4.30;;;20.60;80.80;;;;;;5056545;28;20178;-80
2021/07/25 05:45:41;;;;;;;7.87;4.60;;;20.70;77.20;;;;;;5058339;28;20241;-79
2021/07/25 05:48:07;;;;;;;7.67;4.23;;;20.80;74.10;;;;;;5056610;28;20530;-80
2021/07/25 05:50:33;;;;;;;11.03;4.27;;;20.90;70.30;;;;;;5056370;28;20176;-80
2021/07/25 05:52:59;;;;;;;8.37;3.90;;;20.80;69.10;;;;;;5056298;28;20173;-80
2021/07/25 05:55:33;;;;;;;8.00;3.90;;;20.70;69.10;;;;;;5055828;28;20179;-79
2021/07/25 05:57:59;;;;;;;10.10;4.40;;;20.70;71.00;;;;;;5055424;28;20183;-78
2021/07/25 06:00:25;;;;;;;7.73;4.37;;;20.70;71.30;;;;;;5055338;28;20187;-79
2021/07/25 06:02:52;;;;;;;5.00;3.67;;;20.60;69.90;;;;;;5055087;28;20260;-78
2021/07/25 06:05:18;;;;;;;7.03;3.87;;;20.50;74.90;;;;;;5055019;28;20247;-80
2021/07/25 06:07:44;;;;;;;6.00;3.43;;;20.60;73.40;;;;;;5054967;28;20180;-79
2021/07/25 06:10:10;;;;;;;7.30;3.90;;;20.80;67.10;;;;;;5054872;28;20749;-78
2021/07/25 06:12:37;;;;;;;8.47;3.93;;;20.80;65.70;;;;;;5054597;28;20168;-78
2021/07/25 06:15:03;;;;;;;8.57;4.07;;;20.70;70.80;;;;;;5054880;28;20199;-77
2021/07/25 06:17:29;;;;;;;6.83;4.20;;;20.60;75.80;;;;;;5055109;28;20176;-79
2021/07/25 06:19:54;;;;;;;6.60;4.33;;;20.80;75.80;;;;;;5053459;28;20168;-78
2021/07/25 06:22:20;;;;;;;7.80;3.97;;;21.00;72.10;;;;;;5064563;28;20188;-75
2021/07/25 06:24:46;;;;;;;5.97;3.97;;;21.20;67.70;;;;;;5076582;28;20207;-77
2021/07/25 06:27:11;;;;;;;7.43;3.70;;;21.20;62.60;;;;;;5076213;28;20183;-79
2021/07/25 06:29:37;;;;;;;6.93;3.77;;;21.30;57.80;;;;;;5063909;28;20679;-78
2021/07/25 06:32:04;;;;;;;7.17;4.20;;;21.30;58.70;;;;;;5061334;28;20183;-77
2021/07/25 06:34:30;;;;;;;6.33;3.50;;;21.50;54.90;;;;;;5056508;28;20182;-81
2021/07/25 06:36:55;;;;;;;7.53;3.67;;;21.70;51.90;;;;;;5055942;28;20184;-80
2021/07/25 06:39:21;;;;;;;6.83;4.03;;;21.90;43.30;;;;;;5055004;28;20204;-79
2021/07/25 06:41:47;;;;;;;8.83;3.90;;;21.80;44.30;;;;;;5054471;28;20215;-81
2021/07/25 06:44:12;;;;;;;7.73;3.90;;;21.90;41.70;;;;;;5054468;28;20239;-79
2021/07/25 06:46:38;;;;;;;6.53;3.60;;;21.80;44.00;;;;;;5054647;28;20603;-79
2021/07/25 06:49:05;;;;;;;11.00;3.80;;;21.80;47.90;;;;;;5054726;28;20253;-81
2021/07/25 06:51:30;;;;;;;10.90;3.57;;;21.90;41.50;;;;;;5054963;28;20633;-79
2021/07/25 06:53:56;;;;;;;7.57;3.80;;;22.10;35.30;;;;;;5054207;28;20270;-78
2021/07/25 06:56:22;;;;;;;6.00;3.40;;;22.40;28.90;;;;;;5057736;28;20192;-77
2021/07/25 06:58:47;;;;;;;6.40;3.63;;;22.60;19.20;;;;;;5054802;28;20565;-80
2021/07/25 07:01:13;;;;;;;8.10;4.07;;;22.70;11.00;;;;;;5071372;28;20174;-80
2021/07/25 07:03:39;;;;;;;7.33;4.27;;;22.90;6.30;;;;;;5073848;28;20512;-78
2021/07/25 07:06:08;;;;;;;9.93;4.47;;;22.90;3.00;;;;;;5054804;28;20174;-79
2021/07/25 07:08:34;;;;;;;7.37;4.67;;;22.90;1.00;;;;;;5054730;28;20287;-79
2021/07/25 07:11:03;;;;;;;8.33;4.50;;;23.00;1.00;;;;;;5054859;28;20212;-79
2021/07/25 07:13:29;;;;;;;7.67;3.97;;;23.10;1.00;;;;;;5066947;28;20173;-78
2021/07/25 07:15:55;;;;;;;6.13;3.70;;;22.90;1.00;;;;;;5074851;28;20199;-79
2021/07/25 07:18:21;;;;;;;5.33;3.63;;;23.00;1.00;;;;;;5074571;28;20170;-79
2021/07/25 07:20:46;;;;;;;4.67;3.53;;;23.00;1.00;;;;;;5075084;28;20230;-78
2021/07/25 07:23:16;;;;;;;5.70;3.17;;;23.10;1.00;;;;;;5074488;28;20269;-77
2021/07/25 07:25:47;;;;;;;6.27;3.47;;;23.20;1.00;;;;;;5074522;28;20175;-79
2021/07/25 07:28:14;;;;;;;7.87;3.50;;;23.20;1.00;;;;;;5072918;28;20583;-78
2021/07/25 07:30:40;;;;;;;6.37;3.87;;;23.30;1.00;;;;;;5061289;28;20176;-77
2021/07/25 07:33:10;;;;;;;5.93;3.40;;;23.20;1.00;;;;;;5056493;28;20213;-80
2021/07/25 07:35:37;;;;;;;5.80;2.90;;;23.20;1.00;;;;;;5054432;28;20178;-79
2021/07/25 07:38:03;;;;;;;8.00;3.63;;;23.30;1.00;;;;;;5053015;28;20183;-78
2021/07/25 07:40:29;;;;;;;4.73;3.17;;;23.20;1.00;;;;;;5053956;28;20209;-80
2021/07/25 07:42:55;;;;;;;5.67;3.03;;;23.20;1.00;;;;;;5054555;28;20174;-79
2021/07/25 07:45:21;;;;;;;8.57;3.30;;;23.30;1.00;;;;;;5055203;28;20615;-80
2021/07/25 07:47:48;;;;;;;5.07;3.03;;;23.20;1.00;;;;;;5057102;28;20179;-78
2021/07/25 07:50:15;;;;;;;8.73;3.50;;;23.10;1.00;;;;;;5055296;28;20211;-78
2021/07/25 07:52:41;;;;;;;4.67;2.70;;;23.20;1.00;;;;;;5053313;28;20191;-79
2021/07/25 07:55:07;;;;;;;5.00;2.80;;;23.30;1.00;;;;;;5052434;28;20197;-80
2021/07/25 07:57:33;;;;;;;3.40;2.60;;;23.30;1.00;;;;;;5053648;28;20252;-79
2021/07/25 07:59:59;;;;;;;4.37;2.77;;;23.40;1.00;;;;;;5054320;28;20258;-81
2021/07/25 08:02:25;;;;;;;6.23;2.70;;;23.30;1.00;;;;;;5054004;28;20175;-78
2021/07/25 08:04:51;;;;;;;7.00;2.90;;;23.00;1.00;;;;;;5067305;28;20182;-79
2021/07/25 08:07:16;;;;;;;5.40;2.90;;;22.90;1.00;;;;;;5073840;28;20237;-80
2021/07/25 08:09:42;;;;;;;4.70;2.77;;;22.80;1.00;;;;;;5074461;28;20568;-77
2021/07/25 08:12:09;;;;;;;5.43;2.90;;;22.90;1.00;;;;;;5073946;28;20197;-79
2021/07/25 08:14:34;;;;;;;6.57;2.67;;;23.00;1.00;;;;;;5072200;28;20189;-78
2021/07/25 08:17:00;;;;;;;6.07;2.87;;;23.10;1.00;;;;;;5075062;28;20176;-78
2021/07/25 08:19:26;;;;;;;5.57;2.63;;;23.20;1.00;;;;;;5073668;28;20282;-78
2021/07/25 08:21:52;;;;;;;7.17;2.60;;;23.40;1.00;;;;;;5074472;28;20220;-79
2021/07/25 08:24:17;;;;;;;4.57;3.07;;;23.50;1.00;;;;;;5074923;28;20202;-78
2021/07/25 08:26:43;;;;;;;5.47;2.50;;;23.60;1.00;;;;;;5082635;28;20171;-79
2021/07/25 08:29:09;;;;;;;6.97;3.00;;;23.50;1.00;;;;;;5083053;28;20210;-78
2021/07/25 08:31:35;;;;;;;4.70;2.93;;;23.50;1.00;;;;;;5078967;28;20179;-78
2021/07/25 08:34:01;;;;;;;6.00;2.87;;;23.50;1.00;;;;;;5080776;28;20179;-79
2021/07/25 08:36:27;;;;;;;5.00;2.80;;;23.80;1.00;;;;;;5083332;28;20246;-79
2021/07/25 08:38:53;;;;;;;4.40;2.80;;;23.90;1.00;;;;;;5080405;28;20176;-77
2021/07/25 08:41:34;;;;;;;6.00;2.70;;;23.90;1.00;;;;;;5083417;28;20677;-81
2021/07/25 08:44:29;;;;;;;5.00;2.40;;;23.90;1.00;;;;;;5074107;28;20171;-79
2021/07/25 08:46:55;;;;;;;4.30;2.47;;;23.60;1.00;;;;;;5074295;28;20179;-76
2021/07/25 08:49:34;;;;;;;5.87;2.87;;;23.50;1.00;;;;;;5073222;28;20248;-79
2021/07/25 08:52:04;;;;;;;6.23;2.60;;;23.40;1.00;;;;;;5076151;28;20573;-80
2021/07/25 08:54:30;;;;;;;9.53;3.30;;;23.60;1.00;;;;;;5077167;28;20178;-80
2021/07/25 08:57:00;;;;;;;4.33;2.63;;;23.70;1.00;;;;;;5077231;28;20164;-80
2021/07/25 08:59:30;;;;;;;4.83;2.73;;;23.60;1.00;;;;;;5077083;28;20185;-79
2021/07/25 09:02:00;;;;;;;4.87;2.83;;;23.50;1.00;;;;;;5076855;28;20198;-79
2021/07/25 09:04:26;;;;;;;5.57;2.60;;;23.60;1.00;;;;;;5068254;28;20249;-79
2021/07/25 09:06:54;;;;;;;5.53;2.47;;;23.60;1.00;;;;;;5057124;28;20175;-79
2021/07/25 09:09:20;;;;;;;5.63;2.50;;;23.90;1.00;;;;;;5057854;28;20185;-81
2021/07/25 09:11:52;;;;;;;4.70;2.47;;;24.10;1.00;;;;;;5058022;28;20255;-80
2021/07/25 09:14:17;;;;;;;5.37;2.40;;;24.10;1.00;;;;;;5057105;28;20179;-82
2021/07/25 09:16:43;;;;;;;6.07;2.80;;;24.30;1.00;;;;;;5057672;28;20251;-80
2021/07/25 09:19:09;;;;;;;5.93;2.43;;;24.40;1.00;;;;;;5056483;28;20181;-79
2021/07/25 09:21:43;;;;;;;7.67;3.00;;;24.60;1.00;;;;;;5057484;28;20172;-79
2021/07/25 09:24:25;;;;;;;10.43;2.37;;;24.70;1.00;;;;;;5056965;28;20254;-78
2021/07/25 09:26:55;;;;;;;3.97;2.47;;;24.80;1.00;;;;;;5056969;28;20177;-80
2021/07/25 09:29:25;;;;;;;3.70;1.80;;;24.80;1.00;;;;;;5056996;28;20236;-80
2021/07/25 09:31:50;;;;;;;5.67;2.20;;;24.70;1.00;;;;;;5057365;28;20214;-80
2021/07/25 09:34:39;;;;;;;4.53;2.33;;;24.40;1.00;;;;;;5057382;28;20586;-80
2021/07/25 09:37:15;;;;;;;4.93;2.43;;;24.20;1.00;;;;;;5057393;28;20231;-82
2021/07/25 09:39:42;;;;;;;4.60;2.30;;;24.50;1.00;;;;;;5057017;28;20177;-79
2021/07/25 09:42:09;;;;;;;5.63;2.30;;;24.50;1.00;;;;;;5056758;28;20203;-80
2021/07/25 09:44:46;;;;;;;4.53;2.00;;;24.60;1.00;;;;;;5056366;28;20241;-80
2021/07/25 09:47:25;;;;;;;5.50;2.30;;;24.60;1.00;;;;;;5057069;28;20168;-80
2021/07/25 09:49:51;;;;;;;4.47;2.33;;;24.60;1.00;;;;;;5055925;28;20306;-80
2021/07/25 09:52:25;;;;;;;4.83;2.20;;;24.80;1.00;;;;;;5054751;28;20169;-79
2021/07/25 09:54:56;;;;;;;4.20;2.23;;;25.00;1.00;;;;;;5056020;28;20176;-80
2021/07/25 09:57:26;;;;;;;3.23;2.10;;;25.40;99.90;;;;;;5056417;28;20211;-81
2021/07/25 09:59:57;;;;;;;4.97;2.20;;;25.60;99.90;;;;;;5056137;28;20180;-80
2021/07/25 10:02:52;;;;;;;4.80;2.50;;;25.60;1.00;;;;;;5054246;28;20595;-81
2021/07/25 10:05:23;;;;;;;3.80;2.10;;;25.40;1.00;;;;;;5071218;28;20199;-80
2021/07/25 10:07:49;;;;;;;5.33;2.10;;;25.40;1.00;;;;;;5076777;28;20240;-80
2021/07/25 10:10:16;;;;;;;4.10;2.30;;;25.20;99.90;;;;;;5076050;28;20633;-79
2021/07/25 10:12:45;;;;;;;5.60;2.40;;;25.20;99.90;;;;;;5076366;28;20191;-81
2021/07/25 10:15:16;;;;;;;5.67;2.53;;;25.40;99.90;;;;;;5075659;28;20256;-81
2021/07/25 10:17:43;;;;;;;6.70;2.47;;;25.60;99.90;;;;;;5075430;28;20210;-80
2021/07/25 10:20:11;;;;;;;5.27;2.37;;;25.50;1.00;;;;;;5075210;28;20168;-80
2021/07/25 10:22:38;;;;;;;3.60;2.13;;;25.30;99.90;;;;;;5075725;28;20690;-80
2021/07/25 10:25:07;;;;;;;4.00;1.90;;;25.30;49.60;;;;;;5075330;28;20733;-80
2021/07/25 10:27:35;;;;;;;4.00;1.97;;;25.30;1.00;;;;;;5075567;28;20179;-79
2021/07/25 10:30:06;;;;;;;5.33;2.33;;;25.40;1.00;;;;;;5075798;28;20200;-81
2021/07/25 10:32:33;;;;;;;3.90;2.13;;;25.20;1.00;;;;;;5076201;28;20163;-81
2021/07/25 10:35:04;;;;;;;3.40;2.17;;;25.10;99.90;;;;;;5075176;28;20199;-80
2021/07/25 10:37:32;;;;;;;5.60;2.40;;;24.90;99.90;;;;;;5075067;28;20179;-79
2021/07/25 10:40:00;;;;;;;5.33;2.53;;;25.00;99.90;;;;;;5075434;28;20522;-79
2021/07/25 10:42:29;;;;;;;5.87;2.87;;;24.90;99.90;;;;;;5069985;28;20172;-80
2021/07/25 10:44:55;;;;;;;5.17;2.23;;;24.80;99.90;;;;;;5069544;28;20176;-81
2021/07/25 10:47:27;;;;;;;3.63;2.20;;;24.80;99.90;;;;;;5077259;28;20244;-79
2021/07/25 10:50:07;;;;;;;5.33;2.30;;;24.70;99.90;;;;;;5086754;28;20219;-80
2021/07/25 10:55:49;;;;;;;4.60;2.50;;;25.40;99.90;;;;;;5093243;28;20168;-79
2021/07/25 10:58:20;;;;;;;6.20;2.30;;;25.80;1.00;;;;;;5079699;28;20183;-80
2021/07/25 11:00:56;;;;;;;4.13;2.10;;;25.70;99.90;;;;;;5075094;28;20697;-78
2021/07/25 11:03:24;;;;;;;5.20;2.43;;;25.70;99.90;;;;;;5072609;28;20179;-79
2021/07/25 11:05:59;;;;;;;6.10;2.60;;;25.70;99.90;;;;;;5053220;28;20176;-80
2021/07/25 11:08:36;;;;;;;4.20;2.60;;;25.70;1.00;;;;;;5054825;28;20196;-80
2021/07/25 11:11:24;;;;;;;4.50;2.90;;;25.70;1.00;;;;;;5054311;28;20647;-79
2021/07/25 11:13:52;;;;;;;3.60;2.13;;;25.80;99.90;;;;;;5054017;28;20180;-80
2021/07/25 11:16:30;;;;;;;4.60;2.63;;;25.80;1.00;;;;;;5052938;28;20193;-77
2021/07/25 11:19:08;;;;;;;4.27;2.17;;;25.90;99.90;;;;;;5057925;28;20172;-78
2021/07/25 11:21:44;;;;;;;7.47;2.90;;;25.80;99.90;;;;;;5063290;28;20193;-79
2021/07/25 11:24:19;;;;;;;5.87;2.30;;;25.60;99.90;;;;;;5056726;28;20204;-81
2021/07/25 11:26:46;;;;;;;5.13;2.10;;;25.50;1.00;;;;;;5058733;28;20175;-80
2021/07/25 11:29:40;;;;;;;4.27;2.23;;;25.40;99.90;;;;;;5054645;28;20204;-79
2021/07/25 11:32:37;;;;;;;5.87;2.20;;;24.90;1.00;;;;;;5052857;28;20278;-81
2021/07/25 11:35:05;;;;;;;4.93;2.20;;;24.70;1.00;;;;;;5054579;28;20177;-79
2021/07/25 11:37:42;;;;;;;2.87;1.63;;;24.70;1.00;;;;;;5054262;28;20165;-79
2021/07/25 11:40:09;;;;;;;1.90;1.50;;;24.80;99.90;;;;;;5054331;28;20169;-80
2021/07/25 11:42:36;;;;;;;2.77;1.63;;;24.70;1.00;;;;;;5054293;28;20223;-79
2021/07/25 11:45:06;;;;;;;2.43;1.40;;;24.70;1.00;;;;;;5056780;28;20197;-80
2021/07/25 11:47:33;;;;;;;2.87;1.80;;;24.80;1.00;;;;;;5053999;28;20637;-79
2021/07/25 11:49:59;;;;;;;4.43;1.57;;;24.90;99.90;;;;;;5053420;28;20307;-78
2021/07/25 11:52:27;;;;;;;2.87;1.80;;;25.00;99.90;;;;;;5061918;28;20176;-79
2021/07/25 11:54:53;;;;;;;2.40;1.73;;;25.20;99.90;;;;;;5088183;28;20171;-78
2021/07/25 11:57:24;;;;;;;3.90;1.80;;;25.10;99.90;;;;;;5074670;28;20180;-80
2021/07/25 11:59:51;;;;;;;2.83;1.77;;;24.90;99.90;;;;;;5075888;28;20301;-80
2021/07/25 12:02:30;;;;;;;4.77;2.10;;;25.00;1.00;;;;;;5093219;28;20159;-78
2021/07/25 12:04:57;;;;;;;3.10;2.00;;;25.20;1.00;;;;;;5093112;28;20179;-79
2021/07/25 12:07:30;;;;;;;4.23;1.90;;;25.30;1.00;;;;;;5092981;28;20176;-79
2021/07/25 12:09:56;;;;;;;3.47;2.17;;;25.30;1.00;;;;;;5076814;28;20286;-82
2021/07/25 12:12:24;;;;;;;3.73;2.20;;;25.50;99.90;;;;;;5073264;28;20174;-80
2021/07/25 12:14:52;;;;;;;4.37;1.90;;;25.60;1.00;;;;;;5066751;28;20184;-78
2021/07/25 12:17:47;;;;;;;4.07;2.27;;;25.90;1.00;;;;;;5062025;28;20180;-79
2021/07/25 12:20:24;;;;;;;4.87;1.90;;;26.00;1.00;;;;;;5060966;28;20156;-79
2021/07/25 12:22:58;;;;;;;2.87;1.70;;;26.00;1.00;;;;;;5056949;28;20168;-79
2021/07/25 12:25:35;;;;;;;5.50;1.80;;;26.00;1.00;;;;;;5072190;28;20172;-78
2021/07/25 12:28:14;;;;;;;4.43;1.70;;;25.80;99.90;;;;;;5070755;28;20169;-79
2021/07/25 12:30:46;;;;;;;3.70;1.60;;;25.80;99.90;;;;;;5054883;28;20204;-79
2021/07/25 12:33:14;;;;;;;3.57;1.83;;;25.80;1.00;;;;;;5072154;28;20511;-79
2021/07/25 12:35:40;;;;;;;3.80;1.80;;;26.00;1.00;;;;;;5072553;28;20176;-78
2021/07/25 12:38:11;;;;;;;5.93;2.00;;;26.10;1.00;;;;;;5073193;28;20165;-77
2021/07/25 12:41:00;;;;;;;3.20;1.80;;;25.90;54.60;;;;;;5073410;28;20164;-79
2021/07/25 12:43:27;;;;;;;2.50;1.63;;;25.80;99.90;;;;;;5073226;28;20165;-78
2021/07/25 12:45:57;;;;;;;2.23;1.70;;;25.80;99.90;;;;;;5074992;28;20168;-78
2021/07/25 12:48:35;;;;;;;3.17;1.90;;;26.00;99.90;;;;;;5064884;28;20183;-78
2021/07/25 12:54:05;;;;;;;2.70;1.60;;;26.20;99.90;;;;;;5069780;28;20168;-79
2021/07/25 12:56:33;;;;;;;2.17;1.40;;;26.20;1.00;;;;;;5062144;28;20188;-78
2021/07/25 12:59:05;;;;;;;2.27;1.50;;;26.20;40.70;;;;;;5071164;28;20652;-79
2021/07/25 13:04:12;;;;;;;2.90;1.73;;;26.30;99.90;;;;;;5063203;28;20176;-79